createdAt,value
2018-12-10T00:00:18.510Z,6.2
2018-12-10T00:05:10.167Z,6.3
2018-12-10T00:10:08.104Z,6.2
2018-12-10T00:15:15.972Z,6.2
2018-12-10T00:20:23.555Z,6.1
2018-12-10T00:25:02.599Z,6.1
2018-12-10T00:30:33.262Z,5.9
2018-12-10T00:35:25.346Z,5.9
2018-12-10T00:40:18.371Z,5.8
2018-12-10T00:45:12.538Z,5.8
2018-12-10T00:55:08.109Z,5.6
2018-12-10T01:00:37.811Z,5.6
2018-12-10T01:05:08.300Z,5.5
2018-12-10T01:10:03.067Z,5.5
2018-12-10T01:15:03.351Z,5.5
2018-12-10T01:20:05.278Z,5.4
2018-12-10T01:25:02.941Z,5.4
2018-12-10T01:30:03.227Z,5.3
2018-12-10T01:35:32.884Z,5.3
2018-12-10T01:40:02.716Z,5.3
2018-12-10T01:45:08.117Z,5.2
2018-12-10T01:50:31.190Z,5.2
2018-12-10T01:55:05.018Z,5.2
2018-12-10T02:00:08.373Z,5.2
2018-12-10T02:05:10.227Z,5.1
2018-12-10T02:15:28.428Z,5.1
2018-12-10T02:20:05.373Z,5.1
2018-12-10T02:25:05.659Z,5.1
2018-12-10T02:30:03.377Z,5.1
2018-12-10T02:35:05.164Z,5.1
2018-12-10T02:40:07.925Z,5.1
2018-12-10T02:45:10.727Z,5.1
2018-12-10T02:50:28.340Z,5.1
2018-12-10T02:55:30.438Z,5.1
2018-12-10T03:00:10.404Z,5.2
2018-12-10T03:05:15.800Z,5.2
2018-12-10T03:10:20.284Z,5.2
2018-12-10T03:20:15.767Z,5.3
2018-12-10T03:25:10.084Z,5.3
2018-12-10T03:30:02.472Z,5.3
2018-12-10T03:35:05.295Z,5.3
2018-12-10T03:40:05.648Z,5.3
2018-12-10T03:45:15.049Z,5.3
2018-12-10T03:50:05.531Z,5.4
2018-12-10T03:55:18.552Z,5.4
2018-12-10T04:00:08.054Z,5.4
2018-12-10T04:05:10.739Z,5.4
2018-12-10T04:10:05.108Z,5.4
2018-12-10T04:15:25.653Z,5.4
2018-12-10T04:20:05.589Z,5.4
2018-12-10T04:25:02.400Z,5.4
2018-12-10T04:30:15.379Z,5.4
2018-12-10T04:35:08.040Z,5.4
2018-12-10T04:40:05.366Z,5.4
2018-12-10T04:45:05.802Z,5.4
2018-12-10T04:50:05.637Z,5.4
2018-12-10T04:55:02.396Z,5.4
2018-12-10T05:00:02.677Z,5.4
2018-12-10T05:05:20.658Z,5.3
2018-12-10T05:10:15.066Z,5.3
2018-12-10T05:20:10.652Z,5.3
2018-12-10T05:25:03.361Z,5.3
2018-12-10T05:30:05.233Z,5.2
2018-12-10T05:35:08.063Z,5.2
2018-12-10T05:40:25.550Z,5.2
2018-12-10T05:45:02.876Z,5.2
2018-12-10T05:50:10.804Z,5.2
2018-12-10T05:55:02.533Z,5.2
2018-12-10T06:00:05.370Z,5.1
2018-12-10T06:05:18.252Z,5.1
2018-12-10T06:10:08.203Z,5
2018-12-10T06:15:07.505Z,5
2018-12-10T06:20:05.432Z,4.9
2018-12-10T06:25:05.881Z,4.8
2018-12-10T06:35:07.613Z,4.9
2018-12-10T06:40:05.892Z,4.8
2018-12-10T06:45:02.676Z,4.8
2018-12-10T06:50:13.139Z,4.8
2018-12-10T06:55:09.961Z,4.8
2018-12-10T07:00:08.372Z,4.7
2018-12-10T07:05:10.191Z,4.7
2018-12-10T07:10:02.992Z,4.7
2018-12-10T07:15:03.305Z,4.7
2018-12-10T07:20:05.178Z,4.7
2018-12-10T07:25:02.875Z,4.7
2018-12-10T07:30:08.202Z,4.8
2018-12-10T07:35:30.347Z,4.8
2018-12-10T07:40:30.956Z,4.8
2018-12-10T07:45:13.417Z,4.8
2018-12-10T07:50:07.777Z,4.8
2018-12-10T07:55:18.210Z,4.7
2018-12-10T08:00:22.763Z,4.7
2018-12-10T08:05:15.388Z,4.7
2018-12-10T08:10:18.335Z,4.7
2018-12-10T08:15:07.497Z,4.8
2018-12-10T08:20:07.920Z,4.7
2018-12-10T08:25:15.703Z,4.7
2018-12-10T08:30:08.131Z,4.7
2018-12-10T08:35:03.262Z,4.7
2018-12-10T08:40:08.124Z,4.6
2018-12-10T08:45:07.639Z,4.6
2018-12-10T08:50:18.164Z,4.5
2018-12-10T08:55:08.252Z,4.5
2018-12-10T09:00:17.809Z,4.4
2018-12-10T09:05:10.479Z,4.4
2018-12-10T09:10:08.297Z,4.5
2018-12-10T09:15:35.493Z,4.5
2018-12-10T09:20:02.885Z,4.5
2018-12-10T09:25:05.655Z,4.6
2018-12-10T09:30:07.565Z,4.7
2018-12-10T09:35:02.820Z,4.7
2018-12-10T09:40:10.250Z,4.9
2018-12-10T09:45:03.002Z,4.9
2018-12-10T09:50:05.218Z,4.9
2018-12-10T09:55:25.780Z,5
2018-12-10T10:00:20.776Z,5
2018-12-10T10:05:22.635Z,5
2018-12-10T10:10:07.462Z,5.1
2018-12-10T10:15:35.721Z,5.1
2018-12-10T10:20:18.306Z,5.1
2018-12-10T10:25:12.501Z,5
2018-12-10T10:30:10.357Z,4.9
2018-12-10T10:40:38.251Z,5
2018-12-10T10:45:17.700Z,5.1
2018-12-10T10:50:23.209Z,5.2
2018-12-10T10:55:20.994Z,5.2
2018-12-10T11:00:05.808Z,5.3
2018-12-10T11:05:22.778Z,5.5
2018-12-10T11:10:17.749Z,5.5
2018-12-10T11:15:20.558Z,5.4
2018-12-10T11:20:18.138Z,5.4
2018-12-10T11:25:05.839Z,5.4
2018-12-10T11:30:03.076Z,5.4
2018-12-10T11:45:08.370Z,5.5
2018-12-10T11:50:02.626Z,5.5
2018-12-10T11:55:13.463Z,5.4
2018-12-10T12:00:07.791Z,5.5
2018-12-10T12:05:08.076Z,5.4
2018-12-10T12:15:20.742Z,5.4
2018-12-10T12:20:05.677Z,5.5
2018-12-10T12:30:05.202Z,5.5
2018-12-10T12:35:20.735Z,5.5
2018-12-10T12:40:02.475Z,5.5
2018-12-10T12:45:05.316Z,5.4
2018-12-10T12:50:10.233Z,5.2
2018-12-10T12:55:02.905Z,5.3
2018-12-10T13:00:10.828Z,5.3
2018-12-10T13:05:05.065Z,5.3
2018-12-10T13:10:05.394Z,3.7
2018-12-10T13:15:33.542Z,5.3
2018-12-10T13:20:02.917Z,5.3
2018-12-10T13:25:18.383Z,5.3
2018-12-10T13:30:17.871Z,5.4
2018-12-10T13:35:08.192Z,5.4
2018-12-10T13:40:05.442Z,5.4
2018-12-10T13:45:20.988Z,5.4
2018-12-10T13:55:02.468Z,5.4
2018-12-10T14:00:30.579Z,5.4
2018-12-10T14:05:15.518Z,5.3
2018-12-10T14:10:08.356Z,5.3
2018-12-10T14:15:15.288Z,5.2
2018-12-10T14:20:07.784Z,5.2
2018-12-10T14:25:13.083Z,5.1
2018-12-10T14:30:05.930Z,5.1
2018-12-10T14:35:07.754Z,5
2018-12-10T14:40:07.660Z,5
2018-12-10T14:45:02.873Z,5
2018-12-10T14:50:05.687Z,5
2018-12-10T14:55:22.693Z,5
2018-12-10T15:00:08.069Z,5
2018-12-10T15:05:03.318Z,5
2018-12-10T15:10:03.086Z,5
2018-12-10T15:15:05.102Z,5
2018-12-10T15:25:02.631Z,5
2018-12-10T15:30:10.529Z,5
2018-12-10T15:35:05.707Z,5
2018-12-10T15:40:10.109Z,4.9
2018-12-10T15:45:07.818Z,4.8
2018-12-10T15:50:08.173Z,4.7
2018-12-10T15:55:12.587Z,4.7
2018-12-10T16:00:15.477Z,4.7
2018-12-10T16:05:05.632Z,4.7
2018-12-10T16:10:02.461Z,4.7
2018-12-10T16:15:15.370Z,4.2
2018-12-10T16:20:23.009Z,4
2018-12-10T16:25:20.773Z,4
2018-12-10T16:30:03.112Z,4
2018-12-10T16:35:25.151Z,4.1
2018-12-10T16:40:20.636Z,4.1
2018-12-10T16:45:10.788Z,4.1
2018-12-10T16:50:03.062Z,4.1
2018-12-10T16:55:05.855Z,4.2
2018-12-10T17:00:05.757Z,4.2
2018-12-10T17:05:20.164Z,4.2
2018-12-10T17:10:07.985Z,4.2
2018-12-10T17:15:03.213Z,4.2
2018-12-10T17:20:05.189Z,4.2
2018-12-10T17:25:05.424Z,4.3
2018-12-10T17:30:15.457Z,4.2
2018-12-10T17:35:02.957Z,4.2
2018-12-10T17:40:07.834Z,4.2
2018-12-10T17:45:13.239Z,4.2
2018-12-10T17:50:20.296Z,4.2
2018-12-10T17:55:08.004Z,4.2
2018-12-10T18:00:08.454Z,4.2
2018-12-10T18:05:05.060Z,4.2
2018-12-10T18:10:05.305Z,4.2
2018-12-10T18:15:05.664Z,4.2
2018-12-10T18:20:10.667Z,4.2
2018-12-10T18:25:10.961Z,4.2
2018-12-10T18:30:08.326Z,4.2
2018-12-10T18:35:07.592Z,4.2
2018-12-10T18:40:08.403Z,4.1
2018-12-10T18:45:05.266Z,4.1
2018-12-10T18:50:33.034Z,4.1
2018-12-10T18:55:13.463Z,4.1
2018-12-10T19:00:25.791Z,4.1
2018-12-10T19:05:03.088Z,4.1
2018-12-10T19:10:02.920Z,4.1
2018-12-10T19:15:08.348Z,4.1
2018-12-10T19:20:02.720Z,4.1
2018-12-10T19:25:08.139Z,4.1
2018-12-10T19:30:07.500Z,4.2
2018-12-10T19:35:05.268Z,4.2
2018-12-10T19:40:25.897Z,4.1
2018-12-10T19:45:18.392Z,4.1
2018-12-10T19:50:28.010Z,3.9
2018-12-10T19:55:07.422Z,3.9
2018-12-10T20:00:17.881Z,4
2018-12-10T20:05:05.602Z,4
2018-12-10T20:10:20.109Z,4.1
2018-12-10T20:15:07.776Z,4.1
2018-12-10T20:20:03.135Z,4.1
2018-12-10T20:25:22.717Z,4.1
2018-12-10T20:30:05.618Z,3.9
2018-12-10T20:35:02.558Z,3.9
2018-12-10T20:40:25.404Z,3.9
2018-12-10T20:45:02.630Z,3.9
2018-12-10T20:55:03.095Z,4
2018-12-10T21:00:07.445Z,4
2018-12-10T21:05:15.294Z,4
2018-12-10T21:10:18.303Z,3.9
2018-12-10T21:15:04.923Z,3.9
2018-12-10T21:20:03.287Z,3.9
2018-12-10T21:25:07.567Z,3.9
2018-12-10T21:30:20.560Z,4
2018-12-10T21:35:15.878Z,3.9
2018-12-10T21:40:17.956Z,4
2018-12-10T21:45:05.561Z,4
2018-12-10T21:50:02.883Z,4
2018-12-10T21:55:05.731Z,4.1
2018-12-10T22:00:03.091Z,4.1
2018-12-10T22:05:08.356Z,4.1
2018-12-10T22:10:05.657Z,4.1
2018-12-10T22:15:02.377Z,4.1
2018-12-10T22:20:10.314Z,4.1
2018-12-10T22:25:13.239Z,4.1
2018-12-10T22:30:15.507Z,4.1
2018-12-10T22:40:07.753Z,4.1
2018-12-10T22:45:28.332Z,4.1
2018-12-10T22:50:25.366Z,4.1
2018-12-10T22:55:05.174Z,4.2
2018-12-10T23:00:12.611Z,4.2
2018-12-10T23:05:38.222Z,4.3
2018-12-10T23:10:08.105Z,4.3
2018-12-10T23:15:03.309Z,4.3
2018-12-10T23:20:10.240Z,4.3
2018-12-10T23:25:08.162Z,4.4
2018-12-10T23:30:07.534Z,4.4
2018-12-10T23:35:07.775Z,4.4
2018-12-10T23:40:07.754Z,4.4
2018-12-10T23:45:15.564Z,4.4
2018-12-10T23:50:13.018Z,4.4
2018-12-10T23:55:08.237Z,4.4
